sensor_id;sensor_type;location;lat;lon;timestamp;temperature;humidity
13186;DHT22;6658;53.080;7.428;2023-03-01T00:02:00;-2.40;99.90
13186;DHT22;6658;53.080;7.428;2023-03-01T00:04:26;-2.30;99.90
13186;DHT22;6658;53.080;7.428;2023-03-01T00:06:53;-2.30;99.90
13186;DHT22;6658;53.080;7.428;2023-03-01T00:09:18;-2.30;99.90
13186;DHT22;6658;53.080;7.428;2023-03-01T00:11:44;-2.30;99.90
13186;DHT22;6658;53.080;7.428;2023-03-01T00:14:10;-2.30;99.90
13186;DHT22;6658;53.080;7.428;2023-03-01T00:16:38;-2.40;99.90
13186;DHT22;6658;53.080;7.428;2023-03-01T00:19:06;-2.40;99.90
13186;DHT22;6658;53.080;7.428;2023-03-01T00:21:32;-2.50;99.90
13186;DHT22;6658;53.080;7.428;2023-03-01T00:23:57;-2.50;99.90
13186;DHT22;6658;53.080;7.428;2023-03-01T00:26:25;-2.50;99.90
13186;DHT22;6658;53.080;7.428;2023-03-01T00:28:51;-2.60;99.90
13186;DHT22;6658;53.080;7.428;2023-03-01T00:31:19;-2.60;99.90
13186;DHT22;6658;53.080;7.428;2023-03-01T00:33:45;-2.60;99.90
13186;DHT22;6658;53.080;7.428;2023-03-01T00:36:12;-2.50;99.90
13186;DHT22;6658;53.080;7.428;2023-03-01T00:38:40;-2.50;99.90
13186;DHT22;6658;53.080;7.428;2023-03-01T00:41:10;-2.50;99.90
13186;DHT22;6658;53.080;7.428;2023-03-01T00:43:36;-2.60;99.90
13186;DHT22;6658;53.080;7.428;2023-03-01T00:46:07;-2.60;99.90
13186;DHT22;6658;53.080;7.428;2023-03-01T00:48:34;-2.60;99.90
13186;DHT22;6658;53.080;7.428;2023-03-01T00:51:11;-2.50;99.90
13186;DHT22;6658;53.080;7.428;2023-03-01T00:53:37;-2.50;99.90
13186;DHT22;6658;53.080;7.428;2023-03-01T00:56:04;-2.50;99.90
13186;DHT22;6658;53.080;7.428;2023-03-01T00:58:30;-2.50;99.90
13186;DHT22;6658;53.080;7.428;2023-03-01T01:00:56;-2.50;99.90
13186;DHT22;6658;53.080;7.428;2023-03-01T01:03:22;-2.40;99.90
13186;DHT22;6658;53.080;7.428;2023-03-01T01:05:50;-2.40;99.90
13186;DHT22;6658;53.080;7.428;2023-03-01T01:08:16;-2.50;99.90
13186;DHT22;6658;53.080;7.428;2023-03-01T01:10:44;-2.50;99.90
13186;DHT22;6658;53.080;7.428;2023-03-01T01:13:10;-2.50;99.90
13186;DHT22;6658;53.080;7.428;2023-03-01T01:15:36;-2.60;99.90
13186;DHT22;6658;53.080;7.428;2023-03-01T01:18:02;-2.60;99.90
13186;DHT22;6658;53.080;7.428;2023-03-01T01:20:28;-2.70;99.90
13186;DHT22;6658;53.080;7.428;2023-03-01T01:22:54;-2.70;99.90
13186;DHT22;6658;53.080;7.428;2023-03-01T01:25:19;-2.70;99.90
13186;DHT22;6658;53.080;7.428;2023-03-01T01:27:45;-2.70;99.90
13186;DHT22;6658;53.080;7.428;2023-03-01T01:30:11;-2.70;99.90
13186;DHT22;6658;53.080;7.428;2023-03-01T01:32:37;-2.70;99.90
13186;DHT22;6658;53.080;7.428;2023-03-01T01:35:03;-2.60;99.90
13186;DHT22;6658;53.080;7.428;2023-03-01T01:37:29;-2.60;99.90
13186;DHT22;6658;53.080;7.428;2023-03-01T01:39:58;-2.60;99.90
13186;DHT22;6658;53.080;7.428;2023-03-01T01:42:25;-2.60;99.90
13186;DHT22;6658;53.080;7.428;2023-03-01T01:45:30;-2.60;99.90
13186;DHT22;6658;53.080;7.428;2023-03-01T01:48:14;-2.70;99.90
13186;DHT22;6658;53.080;7.428;2023-03-01T01:50:41;-2.70;99.90
13186;DHT22;6658;53.080;7.428;2023-03-01T01:53:13;-2.80;99.90
13186;DHT22;6658;53.080;7.428;2023-03-01T01:55:44;-2.80;99.90
13186;DHT22;6658;53.080;7.428;2023-03-01T01:58:14;-2.90;99.90
13186;DHT22;6658;53.080;7.428;2023-03-01T02:00:41;-2.90;99.90
13186;DHT22;6658;53.080;7.428;2023-03-01T02:03:13;-2.90;99.90
13186;DHT22;6658;53.080;7.428;2023-03-01T02:05:53;-2.90;99.90
13186;DHT22;6658;53.080;7.428;2023-03-01T02:08:23;-3.00;99.90
13186;DHT22;6658;53.080;7.428;2023-03-01T02:10:50;-2.90;99.90
13186;DHT22;6658;53.080;7.428;2023-03-01T02:13:17;-3.00;99.90
13186;DHT22;6658;53.080;7.428;2023-03-01T02:15:42;-3.10;99.90
13186;DHT22;6658;53.080;7.428;2023-03-01T02:18:14;-3.10;99.90
13186;DHT22;6658;53.080;7.428;2023-03-01T02:23:16;-3.00;99.90
13186;DHT22;6658;53.080;7.428;2023-03-01T02:28:37;-3.10;99.90
13186;DHT22;6658;53.080;7.428;2023-03-01T02:31:08;-3.10;99.90
13186;DHT22;6658;53.080;7.428;2023-03-01T02:33:54;-3.20;99.90
13186;DHT22;6658;53.080;7.428;2023-03-01T02:36:24;-3.20;99.90
13186;DHT22;6658;53.080;7.428;2023-03-01T02:38:54;-3.20;99.90
13186;DHT22;6658;53.080;7.428;2023-03-01T02:41:22;-3.20;99.90
13186;DHT22;6658;53.080;7.428;2023-03-01T02:43:48;-3.20;99.90
13186;DHT22;6658;53.080;7.428;2023-03-01T02:46:17;-3.20;99.90
13186;DHT22;6658;53.080;7.428;2023-03-01T02:48:49;-3.10;99.90
13186;DHT22;6658;53.080;7.428;2023-03-01T02:57:12;-3.20;99.90
13186;DHT22;6658;53.080;7.428;2023-03-01T02:59:39;-3.20;99.90
13186;DHT22;6658;53.080;7.428;2023-03-01T03:02:07;-3.10;99.90
13186;DHT22;6658;53.080;7.428;2023-03-01T03:04:33;-3.00;99.90
13186;DHT22;6658;53.080;7.428;2023-03-01T03:06:58;-3.00;99.90
13186;DHT22;6658;53.080;7.428;2023-03-01T03:09:24;-3.00;99.90
13186;DHT22;6658;53.080;7.428;2023-03-01T03:11:50;-3.10;99.90
13186;DHT22;6658;53.080;7.428;2023-03-01T03:14:17;-3.10;99.90
13186;DHT22;6658;53.080;7.428;2023-03-01T03:16:45;-3.20;99.90
13186;DHT22;6658;53.080;7.428;2023-03-01T03:19:12;-3.20;99.90
13186;DHT22;6658;53.080;7.428;2023-03-01T03:21:38;-3.10;99.90
13186;DHT22;6658;53.080;7.428;2023-03-01T03:24:04;-3.00;99.90
13186;DHT22;6658;53.080;7.428;2023-03-01T03:26:31;-3.00;99.90
13186;DHT22;6658;53.080;7.428;2023-03-01T03:28:57;-3.00;99.90
13186;DHT22;6658;53.080;7.428;2023-03-01T03:31:23;-3.00;99.90
13186;DHT22;6658;53.080;7.428;2023-03-01T03:33:48;-3.00;99.90
13186;DHT22;6658;53.080;7.428;2023-03-01T03:36:20;-3.00;99.90
13186;DHT22;6658;53.080;7.428;2023-03-01T03:38:46;-3.00;99.90
13186;DHT22;6658;53.080;7.428;2023-03-01T03:41:12;-3.10;99.90
13186;DHT22;6658;53.080;7.428;2023-03-01T03:43:40;-3.10;99.90
13186;DHT22;6658;53.080;7.428;2023-03-01T03:46:06;-3.20;99.90
13186;DHT22;6658;53.080;7.428;2023-03-01T03:48:40;-3.30;99.90
13186;DHT22;6658;53.080;7.428;2023-03-01T03:51:06;-3.30;99.90
13186;DHT22;6658;53.080;7.428;2023-03-01T03:53:33;-3.40;99.90
13186;DHT22;6658;53.080;7.428;2023-03-01T03:55:58;-3.30;99.90
13186;DHT22;6658;53.080;7.428;2023-03-01T03:58:25;-3.30;99.90
13186;DHT22;6658;53.080;7.428;2023-03-01T04:00:53;-3.40;99.90
13186;DHT22;6658;53.080;7.428;2023-03-01T04:03:21;-3.40;99.90
13186;DHT22;6658;53.080;7.428;2023-03-01T04:05:48;-3.50;99.90
13186;DHT22;6658;53.080;7.428;2023-03-01T04:08:16;-3.50;99.90
13186;DHT22;6658;53.080;7.428;2023-03-01T04:10:46;-3.50;99.90
13186;DHT22;6658;53.080;7.428;2023-03-01T04:13:16;-3.50;99.90
13186;DHT22;6658;53.080;7.428;2023-03-01T04:15:42;-3.60;99.90
13186;DHT22;6658;53.080;7.428;2023-03-01T04:18:15;-3.50;99.90
13186;DHT22;6658;53.080;7.428;2023-03-01T04:20:41;-3.60;99.90
13186;DHT22;6658;53.080;7.428;2023-03-01T04:23:08;-3.50;99.90
13186;DHT22;6658;53.080;7.428;2023-03-01T04:25:57;-3.50;99.90
13186;DHT22;6658;53.080;7.428;2023-03-01T04:28:31;-3.50;99.90
13186;DHT22;6658;53.080;7.428;2023-03-01T04:31:07;-3.50;99.90
13186;DHT22;6658;53.080;7.428;2023-03-01T04:33:50;-3.50;99.90
13186;DHT22;6658;53.080;7.428;2023-03-01T04:36:22;-3.40;99.90
13186;DHT22;6658;53.080;7.428;2023-03-01T04:38:48;-3.40;99.90
13186;DHT22;6658;53.080;7.428;2023-03-01T04:41:15;-3.30;99.90
13186;DHT22;6658;53.080;7.428;2023-03-01T04:43:41;-3.20;99.90
13186;DHT22;6658;53.080;7.428;2023-03-01T04:46:09;-3.10;99.90
13186;DHT22;6658;53.080;7.428;2023-03-01T04:48:36;-3.00;99.90
13186;DHT22;6658;53.080;7.428;2023-03-01T04:51:03;-3.00;99.90
13186;DHT22;6658;53.080;7.428;2023-03-01T04:53:29;-3.00;99.90
13186;DHT22;6658;53.080;7.428;2023-03-01T04:55:55;-3.00;99.90
13186;DHT22;6658;53.080;7.428;2023-03-01T04:58:26;-3.00;99.90
13186;DHT22;6658;53.080;7.428;2023-03-01T05:00:52;-3.00;99.90
13186;DHT22;6658;53.080;7.428;2023-03-01T05:03:19;-3.00;99.90
13186;DHT22;6658;53.080;7.428;2023-03-01T05:05:48;-2.90;99.90
13186;DHT22;6658;53.080;7.428;2023-03-01T05:08:14;-2.90;99.90
13186;DHT22;6658;53.080;7.428;2023-03-01T05:10:45;-2.80;99.90
13186;DHT22;6658;53.080;7.428;2023-03-01T05:13:12;-2.90;99.90
13186;DHT22;6658;53.080;7.428;2023-03-01T05:15:39;-2.90;99.90
13186;DHT22;6658;53.080;7.428;2023-03-01T05:18:05;-2.90;99.90
13186;DHT22;6658;53.080;7.428;2023-03-01T05:20:37;-2.90;99.90
13186;DHT22;6658;53.080;7.428;2023-03-01T05:23:03;-2.80;99.90
13186;DHT22;6658;53.080;7.428;2023-03-01T05:25:32;-2.80;99.90
13186;DHT22;6658;53.080;7.428;2023-03-01T05:28:02;-2.80;99.90
13186;DHT22;6658;53.080;7.428;2023-03-01T05:30:31;-2.80;99.90
13186;DHT22;6658;53.080;7.428;2023-03-01T05:32:58;-2.80;99.90
13186;DHT22;6658;53.080;7.428;2023-03-01T05:35:24;-2.70;99.90
13186;DHT22;6658;53.080;7.428;2023-03-01T05:37:50;-2.70;99.90
13186;DHT22;6658;53.080;7.428;2023-03-01T05:40:18;-2.70;99.90
13186;DHT22;6658;53.080;7.428;2023-03-01T05:42:49;-2.70;99.90
13186;DHT22;6658;53.080;7.428;2023-03-01T05:45:16;-2.70;99.90
13186;DHT22;6658;53.080;7.428;2023-03-01T05:47:43;-2.70;99.90
13186;DHT22;6658;53.080;7.428;2023-03-01T05:50:32;-2.70;99.90
13186;DHT22;6658;53.080;7.428;2023-03-01T05:53:04;-2.70;99.90
13186;DHT22;6658;53.080;7.428;2023-03-01T05:55:31;-2.70;99.90
13186;DHT22;6658;53.080;7.428;2023-03-01T05:58:02;-2.70;99.90
13186;DHT22;6658;53.080;7.428;2023-03-01T06:00:29;-2.70;99.90
13186;DHT22;6658;53.080;7.428;2023-03-01T06:02:56;-2.70;99.90
13186;DHT22;6658;53.080;7.428;2023-03-01T06:05:23;-2.70;99.90
13186;DHT22;6658;53.080;7.428;2023-03-01T06:07:49;-2.70;99.90
13186;DHT22;6658;53.080;7.428;2023-03-01T06:10:16;-2.70;99.90
13186;DHT22;6658;53.080;7.428;2023-03-01T06:12:43;-2.70;99.90
13186;DHT22;6658;53.080;7.428;2023-03-01T06:15:11;-2.70;99.90
13186;DHT22;6658;53.080;7.428;2023-03-01T06:17:38;-2.70;99.90
13186;DHT22;6658;53.080;7.428;2023-03-01T06:20:07;-2.70;99.90
13186;DHT22;6658;53.080;7.428;2023-03-01T06:22:33;-2.80;99.90
13186;DHT22;6658;53.080;7.428;2023-03-01T06:24:59;-2.80;99.90
13186;DHT22;6658;53.080;7.428;2023-03-01T06:27:25;-2.90;99.90
13186;DHT22;6658;53.080;7.428;2023-03-01T06:29:50;-3.00;99.90
13186;DHT22;6658;53.080;7.428;2023-03-01T06:32:16;-3.00;99.90
13186;DHT22;6658;53.080;7.428;2023-03-01T06:34:42;-3.10;99.90
13186;DHT22;6658;53.080;7.428;2023-03-01T06:37:08;-3.10;99.90
13186;DHT22;6658;53.080;7.428;2023-03-01T06:39:34;-3.10;99.90
13186;DHT22;6658;53.080;7.428;2023-03-01T06:42:00;-3.00;99.90
13186;DHT22;6658;53.080;7.428;2023-03-01T06:44:26;-3.00;99.90
13186;DHT22;6658;53.080;7.428;2023-03-01T06:46:52;-3.00;99.90
13186;DHT22;6658;53.080;7.428;2023-03-01T06:49:18;-3.00;99.90
13186;DHT22;6658;53.080;7.428;2023-03-01T06:51:44;-3.00;99.90
13186;DHT22;6658;53.080;7.428;2023-03-01T06:54:10;-3.00;99.90
13186;DHT22;6658;53.080;7.428;2023-03-01T06:56:36;-3.00;99.90
13186;DHT22;6658;53.080;7.428;2023-03-01T06:59:02;-2.90;99.90
13186;DHT22;6658;53.080;7.428;2023-03-01T07:01:29;-2.90;99.90
13186;DHT22;6658;53.080;7.428;2023-03-01T07:03:55;-2.80;99.90
13186;DHT22;6658;53.080;7.428;2023-03-01T07:06:21;-2.80;99.90
13186;DHT22;6658;53.080;7.428;2023-03-01T07:08:47;-2.80;99.90
13186;DHT22;6658;53.080;7.428;2023-03-01T07:11:13;-2.90;99.90
13186;DHT22;6658;53.080;7.428;2023-03-01T07:13:39;-2.80;99.90
13186;DHT22;6658;53.080;7.428;2023-03-01T07:16:05;-2.80;99.90
13186;DHT22;6658;53.080;7.428;2023-03-01T07:18:31;-2.70;99.90
13186;DHT22;6658;53.080;7.428;2023-03-01T07:20:56;-2.70;99.90
13186;DHT22;6658;53.080;7.428;2023-03-01T07:23:22;-2.70;99.90
13186;DHT22;6658;53.080;7.428;2023-03-01T07:25:54;-2.60;99.90
13186;DHT22;6658;53.080;7.428;2023-03-01T07:28:22;-2.50;99.90
13186;DHT22;6658;53.080;7.428;2023-03-01T07:30:47;-2.50;99.90
13186;DHT22;6658;53.080;7.428;2023-03-01T07:33:13;-2.40;99.90
13186;DHT22;6658;53.080;7.428;2023-03-01T07:35:39;-2.30;99.90
13186;DHT22;6658;53.080;7.428;2023-03-01T07:38:04;-2.20;99.90
13186;DHT22;6658;53.080;7.428;2023-03-01T07:40:30;-2.00;99.90
13186;DHT22;6658;53.080;7.428;2023-03-01T07:42:57;-1.90;99.90
13186;DHT22;6658;53.080;7.428;2023-03-01T07:45:23;-1.70;99.90
13186;DHT22;6658;53.080;7.428;2023-03-01T07:47:51;-1.60;99.90
13186;DHT22;6658;53.080;7.428;2023-03-01T07:50:16;-1.60;99.90
13186;DHT22;6658;53.080;7.428;2023-03-01T07:52:45;-1.50;99.90
13186;DHT22;6658;53.080;7.428;2023-03-01T07:55:11;-1.50;99.90
13186;DHT22;6658;53.080;7.428;2023-03-01T07:57:37;-1.40;99.90
13186;DHT22;6658;53.080;7.428;2023-03-01T08:00:03;-1.30;99.90
13186;DHT22;6658;53.080;7.428;2023-03-01T08:02:32;-1.20;99.90
13186;DHT22;6658;53.080;7.428;2023-03-01T08:04:58;-1.20;99.90
13186;DHT22;6658;53.080;7.428;2023-03-01T08:07:24;-1.10;99.90
13186;DHT22;6658;53.080;7.428;2023-03-01T08:09:50;-1.00;99.90
13186;DHT22;6658;53.080;7.428;2023-03-01T08:12:15;-0.90;99.90
13186;DHT22;6658;53.080;7.428;2023-03-01T08:14:42;-0.80;99.90
13186;DHT22;6658;53.080;7.428;2023-03-01T08:17:08;-0.80;99.90
13186;DHT22;6658;53.080;7.428;2023-03-01T08:19:34;-0.80;99.90
13186;DHT22;6658;53.080;7.428;2023-03-01T08:22:02;-0.70;99.90
13186;DHT22;6658;53.080;7.428;2023-03-01T08:24:28;-0.70;99.90
13186;DHT22;6658;53.080;7.428;2023-03-01T08:26:54;-0.60;99.90
13186;DHT22;6658;53.080;7.428;2023-03-01T08:29:20;-0.50;99.90
13186;DHT22;6658;53.080;7.428;2023-03-01T08:31:46;-0.50;99.90
13186;DHT22;6658;53.080;7.428;2023-03-01T08:34:14;-0.40;99.90
13186;DHT22;6658;53.080;7.428;2023-03-01T08:36:42;-0.30;99.90
13186;DHT22;6658;53.080;7.428;2023-03-01T08:39:11;-0.20;99.90
13186;DHT22;6658;53.080;7.428;2023-03-01T08:41:37;-0.10;99.90
13186;DHT22;6658;53.080;7.428;2023-03-01T08:44:03;0.00;99.90
13186;DHT22;6658;53.080;7.428;2023-03-01T08:46:34;0.10;99.90
13186;DHT22;6658;53.080;7.428;2023-03-01T08:49:04;0.20;99.90
13186;DHT22;6658;53.080;7.428;2023-03-01T08:51:29;0.40;99.90
13186;DHT22;6658;53.080;7.428;2023-03-01T08:53:57;0.50;99.90
13186;DHT22;6658;53.080;7.428;2023-03-01T08:56:23;0.60;99.90
13186;DHT22;6658;53.080;7.428;2023-03-01T08:58:48;0.70;99.90
13186;DHT22;6658;53.080;7.428;2023-03-01T09:01:16;0.80;99.90
13186;DHT22;6658;53.080;7.428;2023-03-01T09:03:43;0.90;99.90
13186;DHT22;6658;53.080;7.428;2023-03-01T09:06:09;1.00;99.90
13186;DHT22;6658;53.080;7.428;2023-03-01T09:08:40;1.10;99.90
13186;DHT22;6658;53.080;7.428;2023-03-01T09:11:08;1.20;99.90
13186;DHT22;6658;53.080;7.428;2023-03-01T09:13:35;1.40;99.90
13186;DHT22;6658;53.080;7.428;2023-03-01T09:16:03;1.50;99.90
13186;DHT22;6658;53.080;7.428;2023-03-01T09:18:29;1.60;99.90
13186;DHT22;6658;53.080;7.428;2023-03-01T09:21:12;1.70;99.90
13186;DHT22;6658;53.080;7.428;2023-03-01T09:23:39;1.80;99.90
13186;DHT22;6658;53.080;7.428;2023-03-01T09:26:07;1.90;99.90
13186;DHT22;6658;53.080;7.428;2023-03-01T09:28:35;2.10;99.90
13186;DHT22;6658;53.080;7.428;2023-03-01T09:31:01;2.20;99.90
13186;DHT22;6658;53.080;7.428;2023-03-01T09:33:29;2.30;99.90
13186;DHT22;6658;53.080;7.428;2023-03-01T09:35:59;2.40;99.90
13186;DHT22;6658;53.080;7.428;2023-03-01T09:38:26;2.50;99.90
13186;DHT22;6658;53.080;7.428;2023-03-01T09:40:52;2.60;99.90
13186;DHT22;6658;53.080;7.428;2023-03-01T09:43:55;2.70;99.90
13186;DHT22;6658;53.080;7.428;2023-03-01T09:46:23;2.80;99.90
13186;DHT22;6658;53.080;7.428;2023-03-01T09:48:55;2.90;99.90
13186;DHT22;6658;53.080;7.428;2023-03-01T09:51:31;3.10;99.90
13186;DHT22;6658;53.080;7.428;2023-03-01T09:53:58;3.20;99.90
13186;DHT22;6658;53.080;7.428;2023-03-01T09:56:29;3.20;99.90
13186;DHT22;6658;53.080;7.428;2023-03-01T09:59:23;3.30;99.90
13186;DHT22;6658;53.080;7.428;2023-03-01T10:04:41;3.60;99.90
13186;DHT22;6658;53.080;7.428;2023-03-01T10:07:40;3.70;99.90
13186;DHT22;6658;53.080;7.428;2023-03-01T10:10:22;3.90;99.90
13186;DHT22;6658;53.080;7.428;2023-03-01T10:12:50;4.00;99.90
13186;DHT22;6658;53.080;7.428;2023-03-01T10:15:25;4.10;99.90
13186;DHT22;6658;53.080;7.428;2023-03-01T10:18:00;4.20;99.90
13186;DHT22;6658;53.080;7.428;2023-03-01T10:20:54;4.20;99.90
13186;DHT22;6658;53.080;7.428;2023-03-01T10:23:23;4.30;99.90
13186;DHT22;6658;53.080;7.428;2023-03-01T10:31:42;4.60;99.90
13186;DHT22;6658;53.080;7.428;2023-03-01T10:34:40;4.70;99.90
13186;DHT22;6658;53.080;7.428;2023-03-01T10:37:13;4.80;99.90
13186;DHT22;6658;53.080;7.428;2023-03-01T10:39:55;4.90;99.90
13186;DHT22;6658;53.080;7.428;2023-03-01T10:42:35;5.00;99.90
13186;DHT22;6658;53.080;7.428;2023-03-01T10:45:26;5.00;99.90
13186;DHT22;6658;53.080;7.428;2023-03-01T10:48:21;5.00;99.90
13186;DHT22;6658;53.080;7.428;2023-03-01T10:53:24;5.20;99.90
13186;DHT22;6658;53.080;7.428;2023-03-01T10:56:10;5.30;99.90
13186;DHT22;6658;53.080;7.428;2023-03-01T10:59:03;5.30;99.90
13186;DHT22;6658;53.080;7.428;2023-03-01T11:01:32;5.30;99.90
13186;DHT22;6658;53.080;7.428;2023-03-01T11:06:37;5.40;99.90
13186;DHT22;6658;53.080;7.428;2023-03-01T11:09:21;5.50;99.90
13186;DHT22;6658;53.080;7.428;2023-03-01T11:11:56;5.60;99.90
13186;DHT22;6658;53.080;7.428;2023-03-01T11:14:37;5.70;99.90
13186;DHT22;6658;53.080;7.428;2023-03-01T11:17:25;5.70;99.90
13186;DHT22;6658;53.080;7.428;2023-03-01T11:22:54;5.80;99.90
13186;DHT22;6658;53.080;7.428;2023-03-01T11:25:25;5.80;99.90
13186;DHT22;6658;53.080;7.428;2023-03-01T11:27:53;5.80;99.90
13186;DHT22;6658;53.080;7.428;2023-03-01T11:39:16;6.10;99.90
13186;DHT22;6658;53.080;7.428;2023-03-01T11:41:43;6.10;99.90
13186;DHT22;6658;53.080;7.428;2023-03-01T11:44:21;6.20;99.90
13186;DHT22;6658;53.080;7.428;2023-03-01T11:49:46;6.40;99.90
13186;DHT22;6658;53.080;7.428;2023-03-01T12:17:35;6.60;99.90
13186;DHT22;6658;53.080;7.428;2023-03-01T12:20:36;6.70;99.90
13186;DHT22;6658;53.080;7.428;2023-03-01T12:23:27;6.70;99.90
13186;DHT22;6658;53.080;7.428;2023-03-01T12:34:27;6.90;99.90
13186;DHT22;6658;53.080;7.428;2023-03-01T12:39:54;6.90;99.90
13186;DHT22;6658;53.080;7.428;2023-03-01T12:49:09;7.00;99.90
13186;DHT22;6658;53.080;7.428;2023-03-01T12:51:19;7.10;99.90
13186;DHT22;6658;53.080;7.428;2023-03-01T12:53:51;7.10;99.90
13186;DHT22;6658;53.080;7.428;2023-03-01T12:56:22;7.20;99.90
13186;DHT22;6658;53.080;7.428;2023-03-01T13:04:32;7.50;99.90
13186;DHT22;6658;53.080;7.428;2023-03-01T13:07:21;7.50;99.90
13186;DHT22;6658;53.080;7.428;2023-03-01T13:10:06;7.50;99.90
13186;DHT22;6658;53.080;7.428;2023-03-01T13:13:00;7.50;99.90
13186;DHT22;6658;53.080;7.428;2023-03-01T13:15:31;7.60;99.90
13186;DHT22;6658;53.080;7.428;2023-03-01T13:23:24;7.60;99.90
13186;DHT22;6658;53.080;7.428;2023-03-01T13:26:11;7.60;99.90
13186;DHT22;6658;53.080;7.428;2023-03-01T13:33:53;7.60;99.90
13186;DHT22;6658;53.080;7.428;2023-03-01T13:41:54;7.60;99.90
13186;DHT22;6658;53.080;7.428;2023-03-01T13:44:36;7.60;99.90
13186;DHT22;6658;53.080;7.428;2023-03-01T13:49:51;7.60;99.90
13186;DHT22;6658;53.080;7.428;2023-03-01T13:52:39;7.70;99.90
13186;DHT22;6658;53.080;7.428;2023-03-01T13:57:43;7.70;99.90
13186;DHT22;6658;53.080;7.428;2023-03-01T14:05:36;7.80;99.90
13186;DHT22;6658;53.080;7.428;2023-03-01T14:08:04;7.70;99.90
13186;DHT22;6658;53.080;7.428;2023-03-01T14:10:41;7.70;99.90
13186;DHT22;6658;53.080;7.428;2023-03-01T14:21:33;7.70;99.90
13186;DHT22;6658;53.080;7.428;2023-03-01T14:24:00;7.80;99.90
13186;DHT22;6658;53.080;7.428;2023-03-01T14:26:26;7.80;99.90
13186;DHT22;6658;53.080;7.428;2023-03-01T14:28:52;7.80;99.90
13186;DHT22;6658;53.080;7.428;2023-03-01T14:31:37;7.80;99.90
13186;DHT22;6658;53.080;7.428;2023-03-01T14:34:04;7.90;99.90
13186;DHT22;6658;53.080;7.428;2023-03-01T14:36:32;7.90;99.90
13186;DHT22;6658;53.080;7.428;2023-03-01T14:38:59;7.80;99.90
13186;DHT22;6658;53.080;7.428;2023-03-01T14:41:33;7.80;99.90
13186;DHT22;6658;53.080;7.428;2023-03-01T14:44:02;7.80;99.90
13186;DHT22;6658;53.080;7.428;2023-03-01T14:46:40;7.80;99.90
13186;DHT22;6658;53.080;7.428;2023-03-01T14:49:24;7.90;99.90
13186;DHT22;6658;53.080;7.428;2023-03-01T14:52:06;7.80;99.90
13186;DHT22;6658;53.080;7.428;2023-03-01T14:54:44;7.90;99.90
13186;DHT22;6658;53.080;7.428;2023-03-01T14:57:28;7.80;99.90
13186;DHT22;6658;53.080;7.428;2023-03-01T14:59:58;7.80;99.90
13186;DHT22;6658;53.080;7.428;2023-03-01T15:02:26;7.80;99.90
13186;DHT22;6658;53.080;7.428;2023-03-01T15:04:58;7.80;99.90
13186;DHT22;6658;53.080;7.428;2023-03-01T15:07:29;7.80;99.90
13186;DHT22;6658;53.080;7.428;2023-03-01T15:09:57;7.80;99.90
13186;DHT22;6658;53.080;7.428;2023-03-01T15:12:38;7.80;99.90
13186;DHT22;6658;53.080;7.428;2023-03-01T15:17:56;7.80;99.90
13186;DHT22;6658;53.080;7.428;2023-03-01T15:20:25;7.80;99.90
13186;DHT22;6658;53.080;7.428;2023-03-01T15:22:52;7.80;99.90
13186;DHT22;6658;53.080;7.428;2023-03-01T15:25:19;7.80;99.90
13186;DHT22;6658;53.080;7.428;2023-03-01T15:27:50;7.80;99.90
13186;DHT22;6658;53.080;7.428;2023-03-01T15:32:44;7.80;99.90
13186;DHT22;6658;53.080;7.428;2023-03-01T15:37:58;7.70;99.90
13186;DHT22;6658;53.080;7.428;2023-03-01T15:40:29;7.70;99.90
13186;DHT22;6658;53.080;7.428;2023-03-01T15:43:02;7.70;99.90
13186;DHT22;6658;53.080;7.428;2023-03-01T15:45:29;7.70;99.90
13186;DHT22;6658;53.080;7.428;2023-03-01T15:47:58;7.70;99.90
13186;DHT22;6658;53.080;7.428;2023-03-01T15:50:31;7.70;99.90
13186;DHT22;6658;53.080;7.428;2023-03-01T15:53:04;7.60;99.90
13186;DHT22;6658;53.080;7.428;2023-03-01T15:55:32;7.60;99.90
13186;DHT22;6658;53.080;7.428;2023-03-01T15:58:10;7.50;99.90
13186;DHT22;6658;53.080;7.428;2023-03-01T16:00:37;7.50;99.90
13186;DHT22;6658;53.080;7.428;2023-03-01T16:03:05;7.40;99.90
13186;DHT22;6658;53.080;7.428;2023-03-01T16:05:32;7.40;99.90
13186;DHT22;6658;53.080;7.428;2023-03-01T16:07:58;7.30;99.90
13186;DHT22;6658;53.080;7.428;2023-03-01T16:10:24;7.30;99.90
13186;DHT22;6658;53.080;7.428;2023-03-01T16:12:51;7.20;99.90
13186;DHT22;6658;53.080;7.428;2023-03-01T16:15:31;7.20;99.90
13186;DHT22;6658;53.080;7.428;2023-03-01T16:17:57;7.10;99.90
13186;DHT22;6658;53.080;7.428;2023-03-01T16:20:26;7.10;99.90
13186;DHT22;6658;53.080;7.428;2023-03-01T16:22:52;7.00;99.90
13186;DHT22;6658;53.080;7.428;2023-03-01T16:25:20;7.00;99.90
13186;DHT22;6658;53.080;7.428;2023-03-01T16:27:48;7.00;99.90
13186;DHT22;6658;53.080;7.428;2023-03-01T16:30:15;6.90;99.90
13186;DHT22;6658;53.080;7.428;2023-03-01T16:32:42;6.90;99.90
13186;DHT22;6658;53.080;7.428;2023-03-01T16:35:10;6.80;99.90
13186;DHT22;6658;53.080;7.428;2023-03-01T16:37:37;6.70;99.90
13186;DHT22;6658;53.080;7.428;2023-03-01T16:40:04;6.70;99.90
13186;DHT22;6658;53.080;7.428;2023-03-01T16:42:34;6.60;99.90
13186;DHT22;6658;53.080;7.428;2023-03-01T16:45:00;6.50;99.90
13186;DHT22;6658;53.080;7.428;2023-03-01T16:47:27;6.40;99.90
13186;DHT22;6658;53.080;7.428;2023-03-01T16:49:53;6.40;99.90
13186;DHT22;6658;53.080;7.428;2023-03-01T16:52:20;6.30;99.90
13186;DHT22;6658;53.080;7.428;2023-03-01T16:54:45;6.20;99.90
13186;DHT22;6658;53.080;7.428;2023-03-01T16:57:11;6.20;99.90
13186;DHT22;6658;53.080;7.428;2023-03-01T16:59:37;6.10;99.90
13186;DHT22;6658;53.080;7.428;2023-03-01T17:02:03;6.00;99.90
13186;DHT22;6658;53.080;7.428;2023-03-01T17:04:29;5.90;99.90
13186;DHT22;6658;53.080;7.428;2023-03-01T17:06:55;5.90;99.90
13186;DHT22;6658;53.080;7.428;2023-03-01T17:09:21;5.90;99.90
13186;DHT22;6658;53.080;7.428;2023-03-01T17:11:48;5.80;99.90
13186;DHT22;6658;53.080;7.428;2023-03-01T17:14:15;5.70;99.90
13186;DHT22;6658;53.080;7.428;2023-03-01T17:16:42;5.60;99.90
13186;DHT22;6658;53.080;7.428;2023-03-01T17:19:08;5.50;99.90
13186;DHT22;6658;53.080;7.428;2023-03-01T17:21:34;5.40;99.90
13186;DHT22;6658;53.080;7.428;2023-03-01T17:24:00;5.40;99.90
13186;DHT22;6658;53.080;7.428;2023-03-01T17:26:26;5.30;99.90
13186;DHT22;6658;53.080;7.428;2023-03-01T17:28:54;5.20;99.90
13186;DHT22;6658;53.080;7.428;2023-03-01T17:31:21;5.20;99.90
13186;DHT22;6658;53.080;7.428;2023-03-01T17:33:47;5.10;99.90
13186;DHT22;6658;53.080;7.428;2023-03-01T17:36:14;5.00;99.90
13186;DHT22;6658;53.080;7.428;2023-03-01T17:38:40;5.00;99.90
13186;DHT22;6658;53.080;7.428;2023-03-01T17:41:06;4.90;99.90
13186;DHT22;6658;53.080;7.428;2023-03-01T17:43:32;4.80;99.90
13186;DHT22;6658;53.080;7.428;2023-03-01T17:46:00;4.70;99.90
13186;DHT22;6658;53.080;7.428;2023-03-01T17:48:25;4.70;99.90
13186;DHT22;6658;53.080;7.428;2023-03-01T17:50:51;4.60;99.90
13186;DHT22;6658;53.080;7.428;2023-03-01T17:53:17;4.60;99.90
13186;DHT22;6658;53.080;7.428;2023-03-01T17:55:43;4.50;99.90
13186;DHT22;6658;53.080;7.428;2023-03-01T17:58:12;4.50;99.90
13186;DHT22;6658;53.080;7.428;2023-03-01T18:00:38;4.40;99.90
13186;DHT22;6658;53.080;7.428;2023-03-01T18:03:04;4.40;99.90
13186;DHT22;6658;53.080;7.428;2023-03-01T18:05:32;4.30;99.90
13186;DHT22;6658;53.080;7.428;2023-03-01T18:07:58;4.30;99.90
13186;DHT22;6658;53.080;7.428;2023-03-01T18:10:24;4.30;99.90
13186;DHT22;6658;53.080;7.428;2023-03-01T18:12:50;4.20;99.90
13186;DHT22;6658;53.080;7.428;2023-03-01T18:15:16;4.10;99.90
13186;DHT22;6658;53.080;7.428;2023-03-01T18:17:42;4.10;99.90
13186;DHT22;6658;53.080;7.428;2023-03-01T18:20:08;4.00;99.90